sensor_id;sensor_type;location;lat;lon;timestamp;P1;P4;P2;P0;N10;N4;N25;N1;N05;TS
73616;SPS30;61913;52.312;4.858;2023-01-31T00:01:03;9.89;8.55;6.11;2.90;23.58;23.43;22.82;19.59;12.03;1.02
73616;SPS30;61913;52.312;4.858;2023-01-31T00:03:30;9.03;7.81;5.61;2.69;21.86;21.72;21.16;18.24;11.32;1.01
73616;SPS30;61913;52.312;4.858;2023-01-31T00:05:57;9.75;8.46;6.10;2.97;24.16;24.01;23.41;20.29;12.80;1.00
73616;SPS30;61913;52.312;4.858;2023-01-31T00:08:24;11.02;9.52;6.79;3.18;25.94;25.77;25.07;21.46;13.04;1.02
73616;SPS30;61913;52.312;4.858;2023-01-31T00:10:50;11.26;9.72;6.92;3.22;26.24;26.06;25.35;21.64;13.05;1.02
73616;SPS30;61913;52.312;4.858;2023-01-31T00:13:17;10.22;8.84;6.34;3.03;24.70;24.54;23.91;20.60;12.77;0.99
73616;SPS30;61913;52.312;4.858;2023-01-31T00:15:44;9.94;8.60;6.14;2.90;23.62;23.47;22.85;19.60;11.99;1.01
73616;SPS30;61913;52.312;4.858;2023-01-31T00:18:10;10.00;8.63;6.13;2.83;23.07;22.91;22.28;18.97;11.34;1.02
73616;SPS30;61913;52.312;4.858;2023-01-31T00:20:37;9.43;8.15;5.82;2.75;22.37;22.23;21.64;18.55;11.34;1.01
73616;SPS30;61913;52.312;4.858;2023-01-31T00:23:04;10.80;9.33;6.66;3.13;25.45;25.29;24.61;21.07;12.82;1.01
73616;SPS30;61913;52.312;4.858;2023-01-31T00:25:31;11.16;9.60;6.75;3.01;24.59;24.41;23.69;19.93;11.45;1.05
73616;SPS30;61913;52.312;4.858;2023-01-31T00:27:57;10.60;9.12;6.43;2.90;23.63;23.46;22.78;19.22;11.16;1.04
73616;SPS30;61913;52.312;4.858;2023-01-31T00:30:24;12.14;10.43;7.31;3.22;26.31;26.12;25.33;21.21;12.00;1.06
73616;SPS30;61913;52.312;4.858;2023-01-31T00:32:51;11.61;9.99;7.04;3.16;25.76;25.57;24.83;20.92;12.10;1.03
73616;SPS30;61913;52.312;4.858;2023-01-31T00:35:18;11.36;9.78;6.93;3.17;25.81;25.63;24.91;21.13;12.48;1.03
73616;SPS30;61913;52.312;4.858;2023-01-31T00:37:45;10.93;9.46;6.78;3.24;26.38;26.22;25.53;21.99;13.62;0.98
73616;SPS30;61913;52.312;4.858;2023-01-31T00:40:11;9.70;8.42;6.08;2.97;24.18;24.04;23.44;20.34;12.88;0.97
73616;SPS30;61913;52.312;4.858;2023-01-31T00:42:38;10.50;9.07;6.49;3.07;25.00;24.84;24.19;20.76;12.73;1.00
73616;SPS30;61913;52.312;4.858;2023-01-31T00:45:05;10.30;8.91;6.37;3.02;24.56;24.41;23.76;20.40;12.52;1.01
73616;SPS30;61913;52.312;4.858;2023-01-31T00:47:32;10.35;8.95;6.40;3.04;24.76;24.60;23.95;20.58;12.67;1.01
73616;SPS30;61913;52.312;4.858;2023-01-31T00:49:59;10.06;8.68;6.18;2.88;23.42;23.27;22.63;19.32;11.64;1.03
73616;SPS30;61913;52.312;4.858;2023-01-31T00:52:26;9.91;8.57;6.13;2.90;23.59;23.44;22.81;19.58;11.99;1.01
73616;SPS30;61913;52.312;4.858;2023-01-31T00:54:52;9.98;8.65;6.23;3.02;24.56;24.41;23.79;20.58;12.92;0.98
73616;SPS30;61913;52.312;4.858;2023-01-31T00:57:19;10.19;8.85;6.43;3.21;26.08;25.93;25.31;22.10;14.25;0.95
73616;SPS30;61913;52.312;4.858;2023-01-31T00:59:46;9.80;8.51;6.15;3.02;24.56;24.42;23.82;20.69;13.15;0.98
73616;SPS30;61913;52.312;4.858;2023-01-31T01:02:13;10.24;8.87;6.37;3.06;24.93;24.77;24.14;20.83;12.98;1.00
73616;SPS30;61913;52.312;4.858;2023-01-31T01:04:39;10.75;9.28;6.61;3.07;25.03;24.87;24.19;20.64;12.43;1.04
73616;SPS30;61913;52.312;4.858;2023-01-31T01:07:06;10.29;8.90;6.39;3.06;24.93;24.78;24.14;20.81;12.93;1.01
73616;SPS30;61913;52.312;4.858;2023-01-31T01:09:33;10.47;9.06;6.50;3.11;25.30;25.14;24.49;21.10;13.07;1.01
73616;SPS30;61913;52.312;4.858;2023-01-31T01:12:00;10.86;9.36;6.65;3.08;25.06;24.90;24.21;20.62;12.33;1.03
73616;SPS30;61913;52.312;4.858;2023-01-31T01:14:27;10.66;9.21;6.57;3.08;25.07;24.91;24.24;20.74;12.59;1.02
73616;SPS30;61913;52.312;4.858;2023-01-31T01:16:54;10.70;9.29;6.71;3.30;26.84;26.68;26.03;22.62;14.39;0.98
73616;SPS30;61913;52.312;4.858;2023-01-31T01:19:23;11.30;9.82;7.14;3.56;28.92;28.75;28.07;24.50;15.79;0.96
73616;SPS30;61913;52.312;4.858;2023-01-31T01:21:50;9.90;8.64;6.34;3.27;26.52;26.37;25.79;22.73;15.07;0.94
73616;SPS30;61913;52.312;4.858;2023-01-31T01:24:17;9.30;8.10;5.93;3.03;24.58;24.45;23.89;21.01;13.82;0.95
73616;SPS30;61913;52.312;4.858;2023-01-31T01:26:45;10.30;8.95;6.51;3.25;26.44;26.29;25.66;22.42;14.49;0.97
73616;SPS30;61913;52.312;4.858;2023-01-31T01:29:12;9.90;8.61;6.27;3.15;25.61;25.47;24.87;21.76;14.13;0.96
73616;SPS30;61913;52.312;4.858;2023-01-31T01:31:39;10.18;8.87;6.50;3.32;26.99;26.84;26.24;23.08;15.21;0.96
73616;SPS30;61913;52.312;4.858;2023-01-31T01:34:07;9.93;8.64;6.28;3.15;25.60;25.46;24.86;21.74;14.08;0.99
73616;SPS30;61913;52.312;4.858;2023-01-31T01:36:37;9.80;8.51;6.17;3.05;24.81;24.67;24.07;20.96;13.42;1.00
73616;SPS30;61913;52.312;4.858;2023-01-31T01:39:05;11.16;9.68;6.99;3.41;27.75;27.59;26.90;23.33;14.76;1.00
73616;SPS30;61913;52.312;4.858;2023-01-31T01:41:32;10.14;8.77;6.30;3.02;24.54;24.39;23.76;20.47;12.71;1.02
73616;SPS30;61913;52.312;4.858;2023-01-31T01:43:59;10.92;9.43;6.72;3.15;25.66;25.49;24.81;21.22;12.88;1.04
73616;SPS30;61913;52.312;4.858;2023-01-31T01:48:55;8.53;7.48;5.56;2.99;24.25;24.13;23.64;21.09;14.45;0.90
73616;SPS30;61913;52.312;4.858;2023-01-31T01:51:25;9.17;8.03;5.97;3.19;25.86;25.73;25.21;22.45;15.32;0.91
73616;SPS30;61913;52.312;4.858;2023-01-31T01:53:54;8.76;7.66;5.66;2.98;24.16;24.04;23.53;20.86;14.06;0.90
73616;SPS30;61913;52.312;4.858;2023-01-31T01:56:26;9.28;8.14;6.05;3.25;26.37;26.24;25.71;22.93;15.71;0.88
73616;SPS30;61913;52.312;4.858;2023-01-31T02:01:24;9.76;8.51;6.25;3.22;26.13;25.99;25.41;22.40;14.85;0.93
73616;SPS30;61913;52.312;4.858;2023-01-31T02:03:54;9.86;8.61;6.34;3.29;26.73;26.59;26.01;22.98;15.34;0.92
73616;SPS30;61913;52.312;4.858;2023-01-31T02:06:20;9.72;8.51;6.31;3.36;27.22;27.09;26.53;23.60;16.04;0.91
73616;SPS30;61913;52.312;4.858;2023-01-31T02:08:47;8.55;7.52;5.64;3.12;25.23;25.11;24.63;22.14;15.45;0.89
73616;SPS30;61913;52.312;4.858;2023-01-31T02:13:45;9.17;8.08;6.09;3.41;27.60;27.48;26.97;24.33;17.14;0.88
73616;SPS30;61913;52.312;4.858;2023-01-31T02:16:12;9.94;8.70;6.45;3.44;27.89;27.75;27.18;24.19;16.46;0.93
73616;SPS30;61913;52.312;4.858;2023-01-31T02:18:40;11.30;9.85;7.22;3.70;30.06;29.90;29.23;25.73;16.99;0.94
73616;SPS30;61913;52.312;4.858;2023-01-31T02:33:58;10.29;9.04;6.76;3.69;29.85;29.71;29.13;26.09;18.06;0.90
73616;SPS30;61913;52.312;4.858;2023-01-31T02:37:17;9.91;8.74;6.62;3.74;30.29;30.16;29.62;26.79;19.01;0.86
73616;SPS30;61913;52.312;4.858;2023-01-31T02:44:58;9.96;8.79;6.66;3.78;30.57;30.44;29.90;27.06;19.23;0.88
73616;SPS30;61913;52.312;4.858;2023-01-31T02:50:04;10.23;9.05;6.91;3.99;32.26;32.12;31.58;28.71;20.65;0.85
73616;SPS30;61913;52.312;4.858;2023-01-31T02:55:18;9.88;8.79;6.81;4.09;33.06;32.93;32.43;29.78;21.94;0.80
73616;SPS30;61913;52.312;4.858;2023-01-31T02:58:08;9.98;8.88;6.87;4.11;33.21;33.09;32.57;29.88;21.97;0.82
73616;SPS30;61913;52.312;4.858;2023-01-31T03:00:38;9.30;8.27;6.41;3.85;31.08;30.97;30.49;27.99;20.61;0.81
73616;SPS30;61913;52.312;4.858;2023-01-31T03:03:07;10.91;9.69;7.47;4.44;35.83;35.70;35.13;32.16;23.52;0.84
73616;SPS30;61913;52.312;4.858;2023-01-31T03:05:38;10.89;9.68;7.46;4.43;35.82;35.68;35.11;32.15;23.53;0.85
73616;SPS30;61913;52.312;4.858;2023-01-31T03:08:08;10.75;9.57;7.43;4.49;36.23;36.10;35.55;32.67;24.14;0.80
73616;SPS30;61913;52.312;4.858;2023-01-31T03:11:01;10.78;9.60;7.45;4.50;36.33;36.19;35.64;32.77;24.21;0.82
73616;SPS30;61913;52.312;4.858;2023-01-31T03:13:32;9.98;8.93;7.01;4.37;35.22;35.10;34.61;32.04;24.07;0.81
73616;SPS30;61913;52.312;4.858;2023-01-31T03:16:08;11.26;10.00;7.71;4.57;36.95;36.81;36.22;33.15;24.24;0.84
73616;SPS30;61913;52.312;4.858;2023-01-31T03:19:04;12.07;10.69;8.19;4.78;38.60;38.44;37.80;34.46;24.94;0.82
73616;SPS30;61913;52.312;4.858;2023-01-31T03:21:50;11.87;10.52;8.07;4.72;38.14;37.99;37.36;34.08;24.71;0.83
73616;SPS30;61913;52.312;4.858;2023-01-31T03:24:20;11.63;10.40;8.15;5.04;40.65;40.50;39.93;36.91;27.63;0.80
73616;SPS30;61913;52.312;4.858;2023-01-31T03:26:52;10.32;9.26;7.33;4.65;37.48;37.36;36.86;34.27;26.00;0.78
73616;SPS30;61913;52.312;4.858;2023-01-31T03:29:21;11.51;10.32;8.14;5.12;41.31;41.17;40.61;37.69;28.48;0.77
73616;SPS30;61913;52.312;4.858;2023-01-31T03:31:52;10.74;9.63;7.60;4.78;38.52;38.39;37.87;35.14;26.54;0.77
73616;SPS30;61913;52.312;4.858;2023-01-31T03:34:21;10.65;9.58;7.64;4.93;39.69;39.57;39.07;36.46;27.89;0.75
73616;SPS30;61913;52.312;4.858;2023-01-31T03:36:56;10.97;9.87;7.86;5.05;40.71;40.58;40.06;37.36;28.53;0.79
73616;SPS30;61913;52.312;4.858;2023-01-31T03:42:03;10.38;9.44;7.72;5.27;42.42;42.31;41.86;39.54;31.08;0.72
73616;SPS30;61913;52.312;4.858;2023-01-31T03:47:25;10.55;9.54;7.71;5.13;41.28;41.16;40.69;38.22;29.67;0.75
73616;SPS30;61913;52.312;4.858;2023-01-31T03:49:56;10.75;9.78;8.01;5.47;44.04;43.93;43.47;41.07;32.30;0.73
73616;SPS30;61913;52.312;4.858;2023-01-31T03:52:28;11.03;9.99;8.09;5.41;43.53;43.40;42.92;40.35;31.41;0.74
73616;SPS30;61913;52.312;4.858;2023-01-31T03:54:59;11.38;10.29;8.32;5.54;44.56;44.44;43.93;41.26;32.05;0.74
73616;SPS30;61913;52.312;4.858;2023-01-31T03:57:36;12.20;11.00;8.80;5.72;46.12;45.98;45.41;42.45;32.62;0.76
73616;SPS30;61913;52.312;4.858;2023-01-31T04:00:08;10.78;9.79;7.99;5.42;43.58;43.47;43.00;40.56;31.79;0.72
73616;SPS30;61913;52.312;4.858;2023-01-31T04:02:39;10.58;9.67;8.01;5.61;45.13;45.03;44.60;42.34;33.66;0.71
73616;SPS30;61913;52.312;4.858;2023-01-31T04:05:08;11.32;10.35;8.58;6.01;48.31;48.20;47.74;45.33;36.04;0.71
73616;SPS30;61913;52.312;4.858;2023-01-31T04:07:36;11.12;10.16;8.42;5.89;47.39;47.28;46.83;44.45;35.34;0.70
73616;SPS30;61913;52.312;4.858;2023-01-31T04:10:03;10.98;10.01;8.23;5.67;45.61;45.50;45.04;42.62;33.65;0.72
73616;SPS30;61913;52.312;4.858;2023-01-31T04:12:34;11.27;10.30;8.54;5.99;48.17;48.06;47.60;45.21;35.96;0.70
73616;SPS30;61913;52.312;4.858;2023-01-31T04:15:03;10.93;10.03;8.40;6.01;48.32;48.22;47.79;45.57;36.56;0.67
73616;SPS30;61913;52.312;4.858;2023-01-31T04:17:30;11.29;10.34;8.62;6.10;49.05;48.93;48.48;46.13;36.84;0.69
73616;SPS30;61913;52.312;4.858;2023-01-31T04:19:57;11.75;10.68;8.73;5.95;47.87;47.74;47.24;44.60;35.03;0.72
73616;SPS30;61913;52.312;4.858;2023-01-31T04:22:24;12.59;11.36;9.13;5.99;48.24;48.09;47.52;44.51;34.34;0.74
73616;SPS30;61913;52.312;4.858;2023-01-31T04:24:51;11.98;10.82;8.70;5.72;46.05;45.92;45.37;42.51;32.83;0.74
73616;SPS30;61913;52.312;4.858;2023-01-31T04:27:18;11.53;10.43;8.44;5.62;45.23;45.11;44.59;41.90;32.56;0.74
73616;SPS30;61913;52.312;4.858;2023-01-31T04:29:44;10.59;9.67;7.98;5.55;44.62;44.51;44.07;41.78;33.10;0.72
73616;SPS30;61913;52.312;4.858;2023-01-31T04:32:11;10.51;9.59;7.93;5.53;44.44;44.34;43.91;41.64;33.03;0.71
73616;SPS30;61913;52.312;4.858;2023-01-31T04:34:37;11.42;10.33;8.36;5.56;44.77;44.64;44.13;41.46;32.21;0.74
73616;SPS30;61913;52.312;4.858;2023-01-31T04:37:04;10.95;9.89;7.96;5.23;42.14;42.01;41.51;38.90;30.05;0.76
73616;SPS30;61913;52.312;4.858;2023-01-31T04:39:31;10.88;9.87;8.03;5.41;43.53;43.41;42.93;40.44;31.59;0.75
73616;SPS30;61913;52.312;4.858;2023-01-31T04:41:58;10.75;9.73;7.88;5.25;42.24;42.12;41.64;39.13;30.41;0.74
73616;SPS30;61913;52.312;4.858;2023-01-31T04:44:25;10.41;9.42;7.61;5.06;40.72;40.61;40.14;37.70;29.27;0.74
73616;SPS30;61913;52.312;4.858;2023-01-31T04:46:51;10.12;9.20;7.51;5.11;41.11;41.00;40.57;38.29;30.05;0.75
73616;SPS30;61913;52.312;4.858;2023-01-31T04:49:18;11.23;10.18;8.27;5.56;44.78;44.66;44.17;41.58;32.46;0.75
73616;SPS30;61913;52.312;4.858;2023-01-31T04:51:45;10.35;9.35;7.55;5.00;40.25;40.14;39.67;37.23;28.86;0.73
73616;SPS30;61913;52.312;4.858;2023-01-31T04:54:11;9.71;8.81;7.17;4.84;38.95;38.85;38.42;36.21;28.32;0.72
73616;SPS30;61913;52.312;4.858;2023-01-31T04:56:38;11.22;10.13;8.15;5.36;43.19;43.06;42.55;39.88;30.81;0.75
73616;SPS30;61913;52.312;4.858;2023-01-31T04:59:04;11.16;10.06;8.06;5.25;42.31;42.19;41.67;38.97;29.97;0.74
73616;SPS30;61913;52.312;4.858;2023-01-31T05:01:31;10.93;9.84;7.84;5.05;40.70;40.58;40.06;37.38;28.58;0.76
73616;SPS30;61913;52.312;4.858;2023-01-31T05:03:58;10.22;9.19;7.32;4.70;37.88;37.77;37.28;34.76;26.55;0.80
73616;SPS30;61913;52.312;4.858;2023-01-31T05:06:24;10.91;9.76;7.69;4.81;38.81;38.68;38.14;35.35;26.63;0.80
73616;SPS30;61913;52.312;4.858;2023-01-31T05:08:51;11.34;10.13;7.94;4.91;39.61;39.47;38.91;35.97;26.92;0.80
73616;SPS30;61913;52.312;4.858;2023-01-31T05:11:19;11.02;9.79;7.56;4.50;36.37;36.23;35.66;32.67;23.94;0.83
73616;SPS30;61913;52.312;4.858;2023-01-31T05:13:46;11.62;10.28;7.85;4.54;36.70;36.55;35.92;32.68;23.53;0.85
73616;SPS30;61913;52.312;4.858;2023-01-31T05:16:13;10.72;9.50;7.29;4.28;34.57;34.43;33.87;30.91;22.45;0.84
73616;SPS30;61913;52.312;4.858;2023-01-31T05:18:40;11.46;10.15;7.77;4.52;36.57;36.42;35.81;32.62;23.58;0.86
73616;SPS30;61913;52.312;4.858;2023-01-31T05:21:06;11.23;9.91;7.50;4.24;34.30;34.15;33.54;30.33;21.51;0.87
73616;SPS30;61913;52.312;4.858;2023-01-31T05:23:34;10.62;9.40;7.18;4.15;33.58;33.44;32.87;29.90;21.53;0.85
73616;SPS30;61913;52.312;4.858;2023-01-31T05:26:01;11.45;10.09;7.60;4.25;34.37;34.22;33.58;30.27;21.30;0.89
73616;SPS30;61913;52.312;4.858;2023-01-31T05:28:28;12.10;10.63;7.98;4.39;35.57;35.40;34.72;31.18;21.73;0.91
73616;SPS30;61913;52.312;4.858;2023-01-31T05:31:00;12.55;10.95;8.06;4.18;33.91;33.73;32.99;29.13;19.42;0.94
73616;SPS30;61913;52.312;4.858;2023-01-31T05:33:27;12.06;10.52;7.74;4.02;32.59;32.42;31.71;28.01;18.67;0.92
73616;SPS30;61913;52.312;4.858;2023-01-31T05:35:55;11.84;10.38;7.73;4.17;33.79;33.63;32.95;29.42;20.20;0.90
73616;SPS30;61913;52.312;4.858;2023-01-31T05:38:22;12.17;10.67;7.96;4.31;34.95;34.78;34.09;30.48;20.99;0.90
73616;SPS30;61913;52.312;4.858;2023-01-31T05:40:49;10.41;9.17;6.92;3.88;31.36;31.22;30.65;27.64;19.48;0.87
73616;SPS30;61913;52.312;4.858;2023-01-31T05:43:15;10.80;9.52;7.20;4.05;32.75;32.60;32.01;28.90;20.44;0.87
73616;SPS30;61913;52.312;4.858;2023-01-31T05:45:42;11.98;10.50;7.80;4.18;33.85;33.68;32.99;29.40;20.08;0.92
73616;SPS30;61913;52.312;4.858;2023-01-31T05:48:10;11.98;10.46;7.69;3.98;32.31;32.14;31.43;27.75;18.48;0.93
73616;SPS30;61913;52.312;4.858;2023-01-31T05:50:36;11.99;10.49;7.75;4.09;33.15;32.98;32.28;28.65;19.34;0.91
73616;SPS30;61913;52.312;4.858;2023-01-31T05:53:03;12.19;10.67;7.90;4.19;33.96;33.79;33.08;29.40;19.92;0.91
73616;SPS30;61913;52.312;4.858;2023-01-31T05:55:29;11.62;10.24;7.72;4.32;34.99;34.83;34.19;30.84;21.73;0.87
73616;SPS30;61913;52.312;4.858;2023-01-31T05:57:56;10.60;9.35;7.09;4.01;32.46;32.31;31.73;28.71;20.39;0.88
73616;SPS30;61913;52.312;4.858;2023-01-31T06:00:23;11.30;9.91;7.39;4.00;32.42;32.26;31.61;28.26;19.45;0.91
73616;SPS30;61913;52.312;4.858;2023-01-31T06:02:49;12.62;11.06;8.24;4.44;36.01;35.84;35.12;31.36;21.53;0.91
73616;SPS30;61913;52.312;4.858;2023-01-31T06:05:16;11.83;10.36;7.70;4.12;33.43;33.26;32.58;29.04;19.84;0.91
73616;SPS30;61913;52.312;4.858;2023-01-31T06:07:43;11.82;10.38;7.77;4.24;34.37;34.21;33.54;30.06;20.83;0.89
73616;SPS30;61913;52.312;4.858;2023-01-31T06:10:10;11.61;10.23;7.73;4.33;35.05;34.89;34.25;30.91;21.80;0.87
73616;SPS30;61913;52.312;4.858;2023-01-31T06:12:36;14.83;13.10;9.95;5.67;45.89;45.69;44.88;40.68;29.02;0.88
73616;SPS30;61913;52.312;4.858;2023-01-31T06:15:03;12.38;10.98;8.44;4.96;40.11;39.95;39.30;35.90;26.12;0.86
73616;SPS30;61913;52.312;4.858;2023-01-31T06:17:30;11.11;9.80;7.41;4.18;33.79;33.65;33.04;29.85;21.13;0.90
73616;SPS30;61913;52.312;4.858;2023-01-31T06:19:56;11.74;10.38;7.92;4.57;36.96;36.81;36.18;32.89;23.65;0.86
73616;SPS30;61913;52.312;4.858;2023-01-31T06:22:23;12.10;10.68;8.08;4.57;36.97;36.81;36.15;32.69;23.19;0.88
73616;SPS30;61913;52.312;4.858;2023-01-31T06:24:50;12.83;11.27;8.42;4.58;37.11;36.93;36.20;32.41;22.40;0.90
73616;SPS30;61913;52.312;4.858;2023-01-31T06:27:16;11.23;9.91;7.50;4.23;34.26;34.11;33.50;30.28;21.47;0.87
73616;SPS30;61913;52.312;4.858;2023-01-31T06:29:43;11.61;10.29;7.88;4.59;37.13;36.97;36.36;33.14;23.97;0.85
73616;SPS30;61913;52.312;4.858;2023-01-31T06:32:10;9.95;8.83;6.79;4.00;32.36;32.23;31.71;28.98;21.11;0.85
73616;SPS30;61913;52.312;4.858;2023-01-31T06:34:36;9.82;8.75;6.80;4.13;33.31;33.19;32.69;30.09;22.28;0.83
73616;SPS30;61913;52.312;4.858;2023-01-31T06:37:03;9.85;8.78;6.84;4.16;33.55;33.43;32.93;30.32;22.48;0.81
73616;SPS30;61913;52.312;4.858;2023-01-31T06:39:29;9.88;8.79;6.80;4.08;32.92;32.79;32.28;29.62;21.79;0.82
73616;SPS30;61913;52.312;4.858;2023-01-31T06:41:56;10.75;9.51;7.26;4.21;34.01;33.87;33.30;30.30;21.83;0.86
73616;SPS30;61913;52.312;4.858;2023-01-31T06:44:22;10.78;9.53;7.25;4.15;33.54;33.39;32.81;29.76;21.29;0.87
73616;SPS30;61913;52.312;4.858;2023-01-31T06:46:51;11.04;9.79;7.52;4.42;35.72;35.58;35.00;31.96;23.25;0.84
73616;SPS30;61913;52.312;4.858;2023-01-31T06:49:18;10.56;9.38;7.23;4.28;34.60;34.47;33.92;31.04;22.68;0.85
73616;SPS30;61913;52.312;4.858;2023-01-31T06:51:44;10.42;9.19;6.95;3.92;31.70;31.56;30.99;28.00;19.82;0.87
73616;SPS30;61913;52.312;4.858;2023-01-31T06:54:11;10.87;9.56;7.17;3.95;32.02;31.87;31.26;28.08;19.59;0.89
73616;SPS30;61913;52.312;4.858;2023-01-31T06:56:37;10.50;9.26;6.99;3.92;31.75;31.61;31.03;28.00;19.77;0.88
73616;SPS30;61913;52.312;4.858;2023-01-31T06:59:04;10.62;9.35;7.04;3.92;31.72;31.58;30.99;27.90;19.59;0.88
73616;SPS30;61913;52.312;4.858;2023-01-31T07:01:31;11.46;10.06;7.54;4.13;33.43;33.27;32.62;29.25;20.31;0.89
73616;SPS30;61913;52.312;4.858;2023-01-31T07:03:58;11.02;9.69;7.27;4.00;32.37;32.22;31.60;28.37;19.76;0.89
73616;SPS30;61913;52.312;4.858;2023-01-31T07:06:24;9.50;8.42;6.45;3.77;30.48;30.36;29.85;27.23;19.73;0.84
73616;SPS30;61913;52.312;4.858;2023-01-31T07:08:51;9.72;8.62;6.62;3.89;31.43;31.31;30.80;28.12;20.44;0.82
73616;SPS30;61913;52.312;4.858;2023-01-31T07:11:17;9.83;8.69;6.62;3.80;30.73;30.60;30.07;27.30;19.56;0.85
73616;SPS30;61913;52.312;4.858;2023-01-31T07:13:44;9.09;8.04;6.11;3.51;28.34;28.22;27.73;25.17;18.02;0.86
73616;SPS30;61913;52.312;4.858;2023-01-31T07:16:13;9.98;8.81;6.70;3.84;31.04;30.91;30.37;27.55;19.71;0.85
73616;SPS30;61913;52.312;4.858;2023-01-31T07:18:42;9.83;8.67;6.57;3.73;30.18;30.05;29.51;26.71;19.00;0.86
73616;SPS30;61913;52.312;4.858;2023-01-31T07:21:08;9.75;8.59;6.48;3.62;29.28;29.15;28.61;25.79;18.15;0.89
73616;SPS30;61913;52.312;4.858;2023-01-31T07:23:36;10.25;9.00;6.73;3.68;29.77;29.63;29.05;26.03;18.03;0.90
73616;SPS30;61913;52.312;4.858;2023-01-31T07:26:03;10.25;9.01;6.75;3.70;29.97;29.83;29.25;26.24;18.24;0.90
73616;SPS30;61913;52.312;4.858;2023-01-31T07:28:30;9.88;8.71;6.59;3.70;29.98;29.84;29.30;26.46;18.71;0.87
73616;SPS30;61913;52.312;4.858;2023-01-31T07:31:04;9.84;8.66;6.50;3.59;29.07;28.94;28.39;25.52;17.82;0.88
73616;SPS30;61913;52.312;4.858;2023-01-31T07:33:31;11.62;10.34;7.99;4.78;38.62;38.47;37.87;34.74;25.52;0.83
73616;SPS30;61913;52.312;4.858;2023-01-31T07:36:00;9.34;8.22;6.18;3.43;27.73;27.60;27.08;24.36;17.06;0.90
73616;SPS30;61913;52.312;4.858;2023-01-31T07:38:26;9.92;8.69;6.47;3.49;28.25;28.12;27.55;24.59;16.87;0.91
73616;SPS30;61913;52.312;4.858;2023-01-31T07:40:53;10.23;8.95;6.63;3.52;28.51;28.36;27.77;24.68;16.74;0.91
73616;SPS30;61913;52.312;4.858;2023-01-31T07:43:20;10.24;8.94;6.58;3.42;27.79;27.64;27.04;23.90;15.96;0.93
73616;SPS30;61913;52.312;4.858;2023-01-31T07:45:46;9.57;8.38;6.21;3.29;26.69;26.56;26.00;23.11;15.67;0.92
73616;SPS30;61913;52.312;4.858;2023-01-31T07:48:14;8.97;7.88;5.89;3.21;25.98;25.86;25.35;22.70;15.70;0.90
73616;SPS30;61913;52.312;4.858;2023-01-31T07:50:40;10.56;9.26;6.89;3.70;29.99;29.84;29.23;26.08;17.85;0.91
73616;SPS30;61913;52.312;4.858;2023-01-31T07:53:07;9.91;8.70;6.50;3.54;28.64;28.51;27.95;25.01;17.28;0.89
73616;SPS30;61913;52.312;4.858;2023-01-31T07:55:33;9.96;8.71;6.45;3.42;27.69;27.55;26.97;23.96;16.23;0.92
73616;SPS30;61913;52.312;4.858;2023-01-31T07:58:00;9.30;8.14;6.04;3.22;26.11;25.98;25.44;22.64;15.41;0.92
73616;SPS30;61913;52.312;4.858;2023-01-31T08:00:27;10.00;8.74;6.44;3.36;27.23;27.09;26.50;23.44;15.69;0.92
73616;SPS30;61913;52.312;4.858;2023-01-31T08:03:22;9.23;8.07;5.96;3.14;25.47;25.34;24.80;22.00;14.84;0.92
73616;SPS30;61913;52.312;4.858;2023-01-31T08:08:25;8.80;7.73;5.79;3.18;25.73;25.61;25.12;22.53;15.66;0.89
73616;SPS30;61913;52.312;4.858;2023-01-31T08:10:52;8.75;7.66;5.68;3.01;24.43;24.30;23.80;21.15;14.35;0.90
73616;SPS30;61913;52.312;4.858;2023-01-31T08:13:18;10.29;8.95;6.51;3.26;26.50;26.35;25.73;22.49;14.56;0.95
73616;SPS30;61913;52.312;4.858;2023-01-31T08:15:45;9.75;8.51;6.25;3.24;26.31;26.17;25.60;22.60;15.05;0.92
73616;SPS30;61913;52.312;4.858;2023-01-31T08:18:12;8.97;7.84;5.79;3.04;24.68;24.55;24.03;21.30;14.34;0.92
73616;SPS30;61913;52.312;4.858;2023-01-31T08:20:38;11.11;9.68;7.06;3.58;29.09;28.93;28.26;24.79;16.21;0.95
73616;SPS30;61913;52.312;4.858;2023-01-31T08:23:06;9.73;8.47;6.20;3.16;25.69;25.55;24.97;21.94;14.43;0.96
73616;SPS30;61913;52.312;4.858;2023-01-31T08:25:33;9.57;8.34;6.11;3.13;25.39;25.25;24.69;21.72;14.33;0.94
73616;SPS30;61913;52.312;4.858;2023-01-31T08:28:00;9.72;8.48;6.23;3.23;26.18;26.04;25.47;22.48;14.95;0.94
73616;SPS30;61913;52.312;4.858;2023-01-31T08:30:27;9.46;8.26;6.09;3.18;25.78;25.64;25.09;22.20;14.87;0.92
73616;SPS30;61913;52.312;4.858;2023-01-31T08:32:55;10.31;9.01;6.64;3.46;28.09;27.95;27.34;24.19;16.19;0.93
73616;SPS30;61913;52.312;4.858;2023-01-31T08:35:21;10.98;9.54;6.93;3.46;28.13;27.97;27.30;23.84;15.38;0.97
73616;SPS30;61913;52.312;4.858;2023-01-31T08:37:50;11.96;10.37;7.48;3.65;29.69;29.52;28.78;24.95;15.76;0.97
73616;SPS30;61913;52.312;4.858;2023-01-31T08:40:16;10.58;9.22;6.75;3.45;28.01;27.86;27.23;23.95;15.77;0.95
73616;SPS30;61913;52.312;4.858;2023-01-31T08:42:43;10.73;9.33;6.79;3.40;27.66;27.50;26.85;23.48;15.21;0.97
73616;SPS30;61913;52.312;4.858;2023-01-31T08:45:18;11.75;10.22;7.43;3.72;30.23;30.06;29.35;25.64;16.59;0.97
73616;SPS30;61913;52.312;4.858;2023-01-31T08:47:45;11.25;9.87;7.35;3.96;32.11;31.95;31.31;27.95;19.19;0.91
73616;SPS30;61913;52.312;4.858;2023-01-31T08:50:12;10.37;9.07;6.70;3.53;28.64;28.49;27.89;24.74;16.69;0.92
73616;SPS30;61913;52.312;4.858;2023-01-31T08:52:53;11.05;9.67;7.16;3.80;30.82;30.67;30.03;26.69;18.11;0.91
73616;SPS30;61913;52.312;4.858;2023-01-31T08:55:20;10.41;9.12;6.77;3.63;29.38;29.24;28.64;25.52;17.42;0.90
73616;SPS30;61913;52.312;4.858;2023-01-31T08:57:48;11.70;10.25;7.61;4.07;32.98;32.82;32.14;28.63;19.54;0.90
73616;SPS30;61913;52.312;4.858;2023-01-31T09:00:25;10.25;8.98;6.67;3.57;28.97;28.83;28.24;25.17;17.20;0.90
73616;SPS30;61913;52.312;4.858;2023-01-31T09:02:52;10.70;9.40;7.04;3.87;31.30;31.16;30.55;27.41;19.05;0.88
73616;SPS30;61913;52.312;4.858;2023-01-31T09:05:20;11.25;9.92;7.52;4.25;34.41;34.26;33.65;30.43;21.61;0.87
73616;SPS30;61913;52.312;4.858;2023-01-31T09:07:47;10.97;9.67;7.30;4.10;33.15;33.00;32.39;29.23;20.63;0.89
73616;SPS30;61913;52.312;4.858;2023-01-31T09:10:14;11.67;10.24;7.63;4.12;33.35;33.19;32.52;29.05;19.96;0.91
73616;SPS30;61913;52.312;4.858;2023-01-31T09:12:40;11.33;9.89;7.28;3.78;30.66;30.50;29.83;26.35;17.58;0.93
73616;SPS30;61913;52.312;4.858;2023-01-31T09:15:07;12.58;10.95;8.00;4.06;32.99;32.81;32.05;28.13;18.42;0.95
73616;SPS30;61913;52.312;4.858;2023-01-31T09:17:34;12.70;11.09;8.15;4.23;34.32;34.14;33.39;29.48;19.65;0.95
73616;SPS30;61913;52.312;4.858;2023-01-31T09:20:01;11.76;10.28;7.59;3.99;32.39;32.22;31.54;27.96;18.84;0.93
73616;SPS30;61913;52.312;4.858;2023-01-31T09:22:32;11.94;10.48;7.82;4.25;34.39;34.23;33.55;30.01;20.70;0.90
73616;SPS30;61913;52.312;4.858;2023-01-31T09:25:00;11.58;10.17;7.62;4.18;33.83;33.67;33.02;29.62;20.58;0.89
73616;SPS30;61913;52.312;4.858;2023-01-31T09:27:27;12.11;10.65;7.98;4.39;35.57;35.40;34.72;31.17;21.71;0.88
73616;SPS30;61913;52.312;4.858;2023-01-31T09:29:55;10.69;9.42;7.11;3.98;32.20;32.05;31.46;28.38;20.01;0.85
73616;SPS30;61913;52.312;4.858;2023-01-31T09:32:21;10.58;9.34;7.09;4.03;32.60;32.46;31.88;28.87;20.56;0.84
73616;SPS30;61913;52.312;4.858;2023-01-31T09:34:48;11.60;10.20;7.65;4.21;34.05;33.90;33.24;29.84;20.78;0.88
73616;SPS30;61913;52.312;4.858;2023-01-31T09:37:15;13.18;11.57;8.64;4.69;38.01;37.83;37.08;33.18;22.90;0.90
73616;SPS30;61913;52.312;4.858;2023-01-31T09:39:42;11.31;9.94;7.45;4.10;33.22;33.06;32.43;29.12;20.28;0.89
73616;SPS30;61913;52.312;4.858;2023-01-31T09:42:33;12.09;10.58;7.83;4.15;33.66;33.49;32.79;29.14;19.75;0.91
73616;SPS30;61913;52.312;4.858;2023-01-31T09:47:39;11.48;10.16;7.76;4.49;36.30;36.15;35.54;32.33;23.28;0.85
73616;SPS30;61913;52.312;4.858;2023-01-31T09:50:16;10.83;9.55;7.24;4.11;33.24;33.10;32.51;29.42;20.92;0.87
73616;SPS30;61913;52.312;4.858;2023-01-31T09:52:47;11.76;10.39;7.91;4.54;36.74;36.59;35.95;32.64;23.39;0.86